sensor_id;sensor_type;location;lat;lon;timestamp;P1;durP1;ratioP1;P2;durP2;ratioP2
55114;SDS011;41010;53.252;5.786;2022-10-17T00:00:54;16.23;;;2.90;;
55114;SDS011;41010;53.252;5.786;2022-10-17T00:03:21;11.30;;;2.67;;
55114;SDS011;41010;53.252;5.786;2022-10-17T00:05:49;17.42;;;2.90;;
55114;SDS011;41010;53.252;5.786;2022-10-17T00:08:16;13.40;;;2.60;;
55114;SDS011;41010;53.252;5.786;2022-10-17T00:10:53;14.77;;;3.20;;
55114;SDS011;41010;53.252;5.786;2022-10-17T00:13:21;14.13;;;2.70;;
55114;SDS011;41010;53.252;5.786;2022-10-17T00:15:48;14.05;;;2.97;;
55114;SDS011;41010;53.252;5.786;2022-10-17T00:18:15;14.25;;;3.75;;
55114;SDS011;41010;53.252;5.786;2022-10-17T00:20:42;12.98;;;2.63;;
55114;SDS011;41010;53.252;5.786;2022-10-17T00:23:10;12.38;;;2.60;;
55114;SDS011;41010;53.252;5.786;2022-10-17T00:25:37;14.93;;;2.90;;
55114;SDS011;41010;53.252;5.786;2022-10-17T00:28:06;13.35;;;2.45;;
55114;SDS011;41010;53.252;5.786;2022-10-17T00:30:34;12.80;;;3.13;;
55114;SDS011;41010;53.252;5.786;2022-10-17T00:33:01;18.50;;;2.65;;
55114;SDS011;41010;53.252;5.786;2022-10-17T00:35:28;18.42;;;3.13;;
55114;SDS011;41010;53.252;5.786;2022-10-17T00:37:56;11.77;;;2.72;;
55114;SDS011;41010;53.252;5.786;2022-10-17T00:40:23;13.45;;;2.50;;
55114;SDS011;41010;53.252;5.786;2022-10-17T00:42:50;9.18;;;2.20;;
55114;SDS011;41010;53.252;5.786;2022-10-17T00:45:21;15.55;;;2.67;;
55114;SDS011;41010;53.252;5.786;2022-10-17T00:47:50;15.88;;;2.60;;
55114;SDS011;41010;53.252;5.786;2022-10-17T00:50:19;14.65;;;2.60;;
55114;SDS011;41010;53.252;5.786;2022-10-17T00:52:46;15.93;;;2.67;;
55114;SDS011;41010;53.252;5.786;2022-10-17T00:55:15;18.45;;;2.72;;
55114;SDS011;41010;53.252;5.786;2022-10-17T00:57:43;12.23;;;2.65;;
55114;SDS011;41010;53.252;5.786;2022-10-17T01:00:11;11.63;;;2.72;;
55114;SDS011;41010;53.252;5.786;2022-10-17T01:02:40;15.55;;;2.83;;
55114;SDS011;41010;53.252;5.786;2022-10-17T01:05:07;14.65;;;3.60;;
55114;SDS011;41010;53.252;5.786;2022-10-17T01:07:35;13.07;;;3.03;;
55114;SDS011;41010;53.252;5.786;2022-10-17T01:10:03;11.18;;;2.85;;
55114;SDS011;41010;53.252;5.786;2022-10-17T01:12:31;14.98;;;3.38;;
55114;SDS011;41010;53.252;5.786;2022-10-17T01:15:04;12.65;;;3.22;;
55114;SDS011;41010;53.252;5.786;2022-10-17T01:17:34;8.13;;;2.95;;
55114;SDS011;41010;53.252;5.786;2022-10-17T01:22:57;12.57;;;3.50;;
55114;SDS011;41010;53.252;5.786;2022-10-17T01:25:27;12.68;;;3.38;;
55114;SDS011;41010;53.252;5.786;2022-10-17T01:28:00;12.15;;;3.30;;
55114;SDS011;41010;53.252;5.786;2022-10-17T01:33:20;13.57;;;3.45;;
55114;SDS011;41010;53.252;5.786;2022-10-17T01:35:53;16.33;;;4.00;;
55114;SDS011;41010;53.252;5.786;2022-10-17T01:38:23;12.57;;;3.10;;
55114;SDS011;41010;53.252;5.786;2022-10-17T01:40:54;9.80;;;3.25;;
55114;SDS011;41010;53.252;5.786;2022-10-17T01:43:23;11.50;;;4.00;;
55114;SDS011;41010;53.252;5.786;2022-10-17T01:45:52;15.57;;;4.32;;
55114;SDS011;41010;53.252;5.786;2022-10-17T01:48:24;10.57;;;4.32;;
55114;SDS011;41010;53.252;5.786;2022-10-17T01:50:55;17.60;;;5.00;;
55114;SDS011;41010;53.252;5.786;2022-10-17T01:53:26;11.07;;;4.10;;
55114;SDS011;41010;53.252;5.786;2022-10-17T01:55:55;9.07;;;4.30;;
55114;SDS011;41010;53.252;5.786;2022-10-17T01:58:25;14.50;;;4.55;;
55114;SDS011;41010;53.252;5.786;2022-10-17T02:00:54;16.10;;;5.32;;
55114;SDS011;41010;53.252;5.786;2022-10-17T02:03:23;14.75;;;4.80;;
55114;SDS011;41010;53.252;5.786;2022-10-17T02:05:53;15.20;;;4.72;;
55114;SDS011;41010;53.252;5.786;2022-10-17T02:08:23;11.38;;;4.70;;
55114;SDS011;41010;53.252;5.786;2022-10-17T02:10:52;21.10;;;5.70;;
55114;SDS011;41010;53.252;5.786;2022-10-17T02:13:22;11.43;;;4.97;;
55114;SDS011;41010;53.252;5.786;2022-10-17T02:21:24;12.60;;;5.18;;
55114;SDS011;41010;53.252;5.786;2022-10-17T02:23:54;16.27;;;5.40;;
55114;SDS011;41010;53.252;5.786;2022-10-17T02:26:24;14.35;;;5.50;;
55114;SDS011;41010;53.252;5.786;2022-10-17T02:28:55;13.32;;;5.50;;
55114;SDS011;41010;53.252;5.786;2022-10-17T02:31:27;15.20;;;5.38;;
55114;SDS011;41010;53.252;5.786;2022-10-17T02:33:57;8.90;;;5.63;;
55114;SDS011;41010;53.252;5.786;2022-10-17T02:36:28;12.88;;;5.85;;
55114;SDS011;41010;53.252;5.786;2022-10-17T02:38:56;17.50;;;5.82;;
55114;SDS011;41010;53.252;5.786;2022-10-17T02:41:24;17.08;;;6.15;;
55114;SDS011;41010;53.252;5.786;2022-10-17T02:43:51;12.40;;;6.00;;
55114;SDS011;41010;53.252;5.786;2022-10-17T02:46:20;16.33;;;6.35;;
55114;SDS011;41010;53.252;5.786;2022-10-17T02:48:49;13.00;;;6.32;;
55114;SDS011;41010;53.252;5.786;2022-10-17T02:51:19;15.85;;;6.85;;
55114;SDS011;41010;53.252;5.786;2022-10-17T02:53:53;15.20;;;6.07;;
55114;SDS011;41010;53.252;5.786;2022-10-17T02:56:21;20.70;;;6.85;;
55114;SDS011;41010;53.252;5.786;2022-10-17T02:58:49;15.90;;;6.93;;
55114;SDS011;41010;53.252;5.786;2022-10-17T03:01:17;18.25;;;7.47;;
55114;SDS011;41010;53.252;5.786;2022-10-17T03:03:45;12.27;;;7.13;;
55114;SDS011;41010;53.252;5.786;2022-10-17T03:06:12;16.38;;;7.85;;
55114;SDS011;41010;53.252;5.786;2022-10-17T03:08:39;22.02;;;7.78;;
55114;SDS011;41010;53.252;5.786;2022-10-17T03:11:08;20.77;;;7.38;;
55114;SDS011;41010;53.252;5.786;2022-10-17T03:13:35;14.73;;;7.70;;
55114;SDS011;41010;53.252;5.786;2022-10-17T03:16:02;16.48;;;8.88;;
55114;SDS011;41010;53.252;5.786;2022-10-17T03:18:30;20.20;;;9.00;;
55114;SDS011;41010;53.252;5.786;2022-10-17T03:20:57;13.98;;;8.98;;
55114;SDS011;41010;53.252;5.786;2022-10-17T03:23:24;17.23;;;9.88;;
55114;SDS011;41010;53.252;5.786;2022-10-17T03:25:52;18.58;;;10.73;;
55114;SDS011;41010;53.252;5.786;2022-10-17T03:28:20;20.13;;;9.73;;
55114;SDS011;41010;53.252;5.786;2022-10-17T03:30:48;15.70;;;9.98;;
55114;SDS011;41010;53.252;5.786;2022-10-17T03:33:15;18.70;;;11.07;;
55114;SDS011;41010;53.252;5.786;2022-10-17T03:35:42;18.30;;;10.38;;
55114;SDS011;41010;53.252;5.786;2022-10-17T03:38:09;19.05;;;10.68;;
55114;SDS011;41010;53.252;5.786;2022-10-17T03:40:37;18.83;;;10.90;;
55114;SDS011;41010;53.252;5.786;2022-10-17T03:43:04;22.75;;;11.95;;
55114;SDS011;41010;53.252;5.786;2022-10-17T03:45:32;22.75;;;11.75;;
55114;SDS011;41010;53.252;5.786;2022-10-17T03:48:00;19.67;;;12.50;;
55114;SDS011;41010;53.252;5.786;2022-10-17T03:50:28;23.75;;;12.63;;
55114;SDS011;41010;53.252;5.786;2022-10-17T03:52:55;19.70;;;13.25;;
55114;SDS011;41010;53.252;5.786;2022-10-17T03:55:23;21.17;;;13.13;;
55114;SDS011;41010;53.252;5.786;2022-10-17T03:57:50;17.90;;;13.27;;
55114;SDS011;41010;53.252;5.786;2022-10-17T04:00:17;23.77;;;13.63;;
55114;SDS011;41010;53.252;5.786;2022-10-17T04:02:46;21.95;;;14.38;;
55114;SDS011;41010;53.252;5.786;2022-10-17T04:05:13;29.25;;;14.65;;
55114;SDS011;41010;53.252;5.786;2022-10-17T04:07:40;26.33;;;14.82;;
55114;SDS011;41010;53.252;5.786;2022-10-17T04:10:08;22.27;;;13.57;;
55114;SDS011;41010;53.252;5.786;2022-10-17T04:12:35;26.63;;;14.68;;
55114;SDS011;41010;53.252;5.786;2022-10-17T04:15:03;23.88;;;15.10;;
55114;SDS011;41010;53.252;5.786;2022-10-17T04:17:30;24.25;;;15.93;;
55114;SDS011;41010;53.252;5.786;2022-10-17T04:19:59;27.23;;;15.38;;
55114;SDS011;41010;53.252;5.786;2022-10-17T04:22:26;25.45;;;16.50;;
55114;SDS011;41010;53.252;5.786;2022-10-17T04:24:53;25.80;;;16.40;;
55114;SDS011;41010;53.252;5.786;2022-10-17T04:27:20;26.20;;;17.23;;
55114;SDS011;41010;53.252;5.786;2022-10-17T04:29:48;25.67;;;16.85;;
55114;SDS011;41010;53.252;5.786;2022-10-17T04:32:15;31.77;;;18.38;;
55114;SDS011;41010;53.252;5.786;2022-10-17T04:34:42;28.02;;;17.73;;
55114;SDS011;41010;53.252;5.786;2022-10-17T04:37:11;28.83;;;17.92;;
55114;SDS011;41010;53.252;5.786;2022-10-17T04:39:38;30.38;;;17.27;;
55114;SDS011;41010;53.252;5.786;2022-10-17T04:42:05;31.95;;;18.85;;
55114;SDS011;41010;53.252;5.786;2022-10-17T04:44:32;28.63;;;18.02;;
55114;SDS011;41010;53.252;5.786;2022-10-17T04:47:00;28.55;;;17.92;;
55114;SDS011;41010;53.252;5.786;2022-10-17T04:49:27;28.73;;;18.83;;
55114;SDS011;41010;53.252;5.786;2022-10-17T04:51:54;33.60;;;19.52;;
55114;SDS011;41010;53.252;5.786;2022-10-17T04:54:23;34.70;;;19.00;;
55114;SDS011;41010;53.252;5.786;2022-10-17T04:56:50;31.42;;;19.35;;
55114;SDS011;41010;53.252;5.786;2022-10-17T04:59:17;32.22;;;19.00;;
55114;SDS011;41010;53.252;5.786;2022-10-17T05:01:45;30.25;;;18.80;;
55114;SDS011;41010;53.252;5.786;2022-10-17T05:04:12;30.60;;;19.00;;
55114;SDS011;41010;53.252;5.786;2022-10-17T05:06:39;32.40;;;20.38;;
55114;SDS011;41010;53.252;5.786;2022-10-17T05:09:06;36.00;;;20.73;;
55114;SDS011;41010;53.252;5.786;2022-10-17T05:11:35;31.67;;;20.42;;
55114;SDS011;41010;53.252;5.786;2022-10-17T05:14:02;33.90;;;19.70;;
55114;SDS011;41010;53.252;5.786;2022-10-17T05:16:30;35.05;;;20.33;;
55114;SDS011;41010;53.252;5.786;2022-10-17T05:18:57;28.73;;;19.02;;
55114;SDS011;41010;53.252;5.786;2022-10-17T05:21:25;36.90;;;21.73;;
55114;SDS011;41010;53.252;5.786;2022-10-17T05:23:53;34.85;;;22.33;;
55114;SDS011;41010;53.252;5.786;2022-10-17T05:26:20;37.50;;;22.83;;
55114;SDS011;41010;53.252;5.786;2022-10-17T05:28:49;32.55;;;21.98;;
55114;SDS011;41010;53.252;5.786;2022-10-17T05:31:17;34.58;;;21.58;;
55114;SDS011;41010;53.252;5.786;2022-10-17T05:33:44;36.00;;;21.88;;
55114;SDS011;41010;53.252;5.786;2022-10-17T05:36:11;36.13;;;22.10;;
55114;SDS011;41010;53.252;5.786;2022-10-17T05:38:39;32.60;;;20.92;;
55114;SDS011;41010;53.252;5.786;2022-10-17T05:41:06;33.00;;;20.95;;
55114;SDS011;41010;53.252;5.786;2022-10-17T05:43:33;38.03;;;21.40;;
55114;SDS011;41010;53.252;5.786;2022-10-17T05:46:03;35.72;;;21.17;;
55114;SDS011;41010;53.252;5.786;2022-10-17T05:48:30;33.88;;;20.95;;
55114;SDS011;41010;53.252;5.786;2022-10-17T05:50:58;35.88;;;21.48;;
55114;SDS011;41010;53.252;5.786;2022-10-17T05:53:28;36.28;;;20.15;;
55114;SDS011;41010;53.252;5.786;2022-10-17T05:55:56;35.10;;;19.85;;
55114;SDS011;41010;53.252;5.786;2022-10-17T05:58:23;34.22;;;19.23;;
55114;SDS011;41010;53.252;5.786;2022-10-17T06:00:50;33.55;;;20.38;;
55114;SDS011;41010;53.252;5.786;2022-10-17T06:03:19;33.60;;;21.17;;
55114;SDS011;41010;53.252;5.786;2022-10-17T06:05:46;37.38;;;20.92;;
55114;SDS011;41010;53.252;5.786;2022-10-17T06:08:13;36.05;;;20.45;;
55114;SDS011;41010;53.252;5.786;2022-10-17T06:10:41;28.23;;;18.88;;
55114;SDS011;41010;53.252;5.786;2022-10-17T06:13:08;36.45;;;20.27;;
55114;SDS011;41010;53.252;5.786;2022-10-17T06:15:35;31.00;;;20.08;;
55114;SDS011;41010;53.252;5.786;2022-10-17T06:18:02;31.67;;;19.65;;
55114;SDS011;41010;53.252;5.786;2022-10-17T06:20:31;36.88;;;19.95;;
55114;SDS011;41010;53.252;5.786;2022-10-17T06:22:58;32.35;;;19.52;;
55114;SDS011;41010;53.252;5.786;2022-10-17T06:25:26;36.65;;;19.92;;
55114;SDS011;41010;53.252;5.786;2022-10-17T06:27:53;31.50;;;17.85;;
55114;SDS011;41010;53.252;5.786;2022-10-17T06:30:20;36.97;;;19.02;;
55114;SDS011;41010;53.252;5.786;2022-10-17T06:32:48;29.65;;;18.25;;
55114;SDS011;41010;53.252;5.786;2022-10-17T06:35:15;28.63;;;17.95;;
55114;SDS011;41010;53.252;5.786;2022-10-17T06:37:44;25.42;;;17.27;;
55114;SDS011;41010;53.252;5.786;2022-10-17T06:40:11;30.38;;;18.00;;
55114;SDS011;41010;53.252;5.786;2022-10-17T06:42:41;28.95;;;18.45;;
55114;SDS011;41010;53.252;5.786;2022-10-17T06:45:09;29.00;;;18.27;;
55114;SDS011;41010;53.252;5.786;2022-10-17T06:47:36;31.35;;;18.30;;
55114;SDS011;41010;53.252;5.786;2022-10-17T06:50:04;31.27;;;18.40;;
55114;SDS011;41010;53.252;5.786;2022-10-17T06:52:31;28.52;;;17.73;;
55114;SDS011;41010;53.252;5.786;2022-10-17T06:55:00;27.17;;;17.42;;
55114;SDS011;41010;53.252;5.786;2022-10-17T06:57:27;27.10;;;17.00;;
55114;SDS011;41010;53.252;5.786;2022-10-17T06:59:54;26.42;;;16.60;;
55114;SDS011;41010;53.252;5.786;2022-10-17T07:02:21;28.13;;;17.17;;
55114;SDS011;41010;53.252;5.786;2022-10-17T07:04:49;27.15;;;16.65;;
55114;SDS011;41010;53.252;5.786;2022-10-17T07:07:16;26.98;;;16.23;;
55114;SDS011;41010;53.252;5.786;2022-10-17T07:09:43;29.85;;;15.65;;
55114;SDS011;41010;53.252;5.786;2022-10-17T07:12:12;25.52;;;15.43;;
55114;SDS011;41010;53.252;5.786;2022-10-17T07:14:39;25.75;;;15.35;;
55114;SDS011;41010;53.252;5.786;2022-10-17T07:17:06;26.60;;;15.77;;
55114;SDS011;41010;53.252;5.786;2022-10-17T07:19:34;26.42;;;14.90;;
55114;SDS011;41010;53.252;5.786;2022-10-17T07:22:02;26.70;;;15.05;;
55114;SDS011;41010;53.252;5.786;2022-10-17T07:24:29;23.40;;;14.77;;
55114;SDS011;41010;53.252;5.786;2022-10-17T07:26:56;25.10;;;13.77;;
55114;SDS011;41010;53.252;5.786;2022-10-17T07:29:25;26.02;;;13.82;;
55114;SDS011;41010;53.252;5.786;2022-10-17T07:31:52;25.98;;;15.07;;
55114;SDS011;41010;53.252;5.786;2022-10-17T07:34:19;24.55;;;13.05;;
55114;SDS011;41010;53.252;5.786;2022-10-17T07:36:51;18.80;;;13.30;;
55114;SDS011;41010;53.252;5.786;2022-10-17T07:39:18;17.67;;;11.98;;
55114;SDS011;41010;53.252;5.786;2022-10-17T07:41:47;23.67;;;12.27;;
55114;SDS011;41010;53.252;5.786;2022-10-17T07:44:14;18.52;;;12.40;;
55114;SDS011;41010;53.252;5.786;2022-10-17T07:46:43;16.30;;;11.73;;
55114;SDS011;41010;53.252;5.786;2022-10-17T07:49:10;18.75;;;12.38;;
55114;SDS011;41010;53.252;5.786;2022-10-17T07:51:38;16.83;;;12.10;;
55114;SDS011;41010;53.252;5.786;2022-10-17T07:54:05;22.83;;;11.65;;
55114;SDS011;41010;53.252;5.786;2022-10-17T07:56:32;18.42;;;12.15;;
55114;SDS011;41010;53.252;5.786;2022-10-17T07:58:59;17.10;;;11.30;;
55114;SDS011;41010;53.252;5.786;2022-10-17T08:01:27;23.30;;;11.40;;
55114;SDS011;41010;53.252;5.786;2022-10-17T08:03:55;18.27;;;10.80;;
55114;SDS011;41010;53.252;5.786;2022-10-17T08:06:23;17.40;;;9.82;;
55114;SDS011;41010;53.252;5.786;2022-10-17T08:08:50;20.50;;;10.15;;
55114;SDS011;41010;53.252;5.786;2022-10-17T08:11:17;18.65;;;10.38;;
55114;SDS011;41010;53.252;5.786;2022-10-17T08:13:45;14.63;;;9.55;;
55114;SDS011;41010;53.252;5.786;2022-10-17T08:16:12;18.38;;;10.32;;
55114;SDS011;41010;53.252;5.786;2022-10-17T08:18:40;19.10;;;10.23;;
55114;SDS011;41010;53.252;5.786;2022-10-17T08:21:09;14.35;;;9.95;;
55114;SDS011;41010;53.252;5.786;2022-10-17T08:23:37;19.38;;;11.63;;
55114;SDS011;41010;53.252;5.786;2022-10-17T08:26:05;17.52;;;10.88;;
55114;SDS011;41010;53.252;5.786;2022-10-17T08:28:34;20.40;;;10.50;;
55114;SDS011;41010;53.252;5.786;2022-10-17T08:31:02;20.08;;;10.60;;
55114;SDS011;41010;53.252;5.786;2022-10-17T08:33:30;16.40;;;9.75;;
55114;SDS011;41010;53.252;5.786;2022-10-17T08:35:58;16.48;;;9.45;;
55114;SDS011;41010;53.252;5.786;2022-10-17T08:38:27;14.93;;;9.23;;
55114;SDS011;41010;53.252;5.786;2022-10-17T08:40:54;14.13;;;9.07;;
55114;SDS011;41010;53.252;5.786;2022-10-17T08:43:26;15.52;;;9.68;;
55114;SDS011;41010;53.252;5.786;2022-10-17T08:45:55;13.25;;;9.30;;
55114;SDS011;41010;53.252;5.786;2022-10-17T08:48:25;16.77;;;10.20;;
55114;SDS011;41010;53.252;5.786;2022-10-17T08:50:53;15.73;;;9.40;;
55114;SDS011;41010;53.252;5.786;2022-10-17T08:53:23;13.20;;;9.70;;
55114;SDS011;41010;53.252;5.786;2022-10-17T08:55:53;15.73;;;9.65;;
55114;SDS011;41010;53.252;5.786;2022-10-17T08:58:21;16.33;;;10.52;;
55114;SDS011;41010;53.252;5.786;2022-10-17T09:00:51;19.25;;;11.27;;
55114;SDS011;41010;53.252;5.786;2022-10-17T09:03:23;20.67;;;12.27;;
55114;SDS011;41010;53.252;5.786;2022-10-17T09:05:55;24.63;;;11.80;;
55114;SDS011;41010;53.252;5.786;2022-10-17T09:08:30;23.23;;;12.90;;
55114;SDS011;41010;53.252;5.786;2022-10-17T09:11:02;21.27;;;12.82;;
55114;SDS011;41010;53.252;5.786;2022-10-17T09:13:34;29.08;;;13.52;;
55114;SDS011;41010;53.252;5.786;2022-10-17T09:16:10;24.65;;;14.45;;
55114;SDS011;41010;53.252;5.786;2022-10-17T09:18:40;24.27;;;13.63;;
55114;SDS011;41010;53.252;5.786;2022-10-17T09:21:14;27.85;;;15.02;;
55114;SDS011;41010;53.252;5.786;2022-10-17T09:23:44;24.70;;;14.48;;
55114;SDS011;41010;53.252;5.786;2022-10-17T09:26:14;35.17;;;17.10;;
55114;SDS011;41010;53.252;5.786;2022-10-17T09:28:42;24.17;;;15.93;;
55114;SDS011;41010;53.252;5.786;2022-10-17T09:31:11;29.33;;;15.75;;
55114;SDS011;41010;53.252;5.786;2022-10-17T09:33:39;34.08;;;16.17;;
55114;SDS011;41010;53.252;5.786;2022-10-17T09:36:08;32.17;;;16.13;;
55114;SDS011;41010;53.252;5.786;2022-10-17T09:38:38;34.38;;;17.67;;
55114;SDS011;41010;53.252;5.786;2022-10-17T09:41:09;37.58;;;18.40;;
55114;SDS011;41010;53.252;5.786;2022-10-17T09:43:40;38.25;;;19.45;;
55114;SDS011;41010;53.252;5.786;2022-10-17T09:46:09;37.78;;;18.83;;
55114;SDS011;41010;53.252;5.786;2022-10-17T09:48:40;46.35;;;18.15;;
55114;SDS011;41010;53.252;5.786;2022-10-17T09:51:09;42.13;;;18.73;;
55114;SDS011;41010;53.252;5.786;2022-10-17T09:53:37;46.22;;;19.38;;
55114;SDS011;41010;53.252;5.786;2022-10-17T09:56:06;38.08;;;18.58;;
55114;SDS011;41010;53.252;5.786;2022-10-17T09:58:43;43.33;;;20.60;;
55114;SDS011;41010;53.252;5.786;2022-10-17T10:01:14;42.03;;;19.08;;
55114;SDS011;41010;53.252;5.786;2022-10-17T10:03:42;46.72;;;20.02;;
55114;SDS011;41010;53.252;5.786;2022-10-17T10:06:12;58.88;;;23.80;;
55114;SDS011;41010;53.252;5.786;2022-10-17T10:08:46;53.40;;;22.33;;
55114;SDS011;41010;53.252;5.786;2022-10-17T10:11:14;65.07;;;24.67;;
55114;SDS011;41010;53.252;5.786;2022-10-17T10:13:43;47.85;;;22.27;;
55114;SDS011;41010;53.252;5.786;2022-10-17T10:16:16;54.72;;;23.52;;
55114;SDS011;41010;53.252;5.786;2022-10-17T10:18:45;45.20;;;22.40;;
55114;SDS011;41010;53.252;5.786;2022-10-17T10:21:13;59.40;;;25.35;;
55114;SDS011;41010;53.252;5.786;2022-10-17T10:23:41;58.65;;;24.75;;
55114;SDS011;41010;53.252;5.786;2022-10-17T10:26:16;54.33;;;25.02;;
55114;SDS011;41010;53.252;5.786;2022-10-17T10:28:51;60.88;;;26.88;;
55114;SDS011;41010;53.252;5.786;2022-10-17T10:33:46;76.88;;;27.50;;
55114;SDS011;41010;53.252;5.786;2022-10-17T10:36:13;61.60;;;26.05;;
55114;SDS011;41010;53.252;5.786;2022-10-17T10:38:40;60.80;;;25.63;;
55114;SDS011;41010;53.252;5.786;2022-10-17T10:41:09;74.40;;;29.67;;
55114;SDS011;41010;53.252;5.786;2022-10-17T10:43:37;71.65;;;29.80;;
55114;SDS011;41010;53.252;5.786;2022-10-17T10:46:15;60.20;;;26.98;;
55114;SDS011;41010;53.252;5.786;2022-10-17T10:48:48;67.03;;;29.17;;
55114;SDS011;41010;53.252;5.786;2022-10-17T10:51:17;48.03;;;24.02;;
55114;SDS011;41010;53.252;5.786;2022-10-17T10:53:46;62.60;;;25.98;;
55114;SDS011;41010;53.252;5.786;2022-10-17T10:56:16;73.32;;;29.30;;
55114;SDS011;41010;53.252;5.786;2022-10-17T10:58:47;74.85;;;29.50;;
55114;SDS011;41010;53.252;5.786;2022-10-17T11:01:18;69.90;;;29.30;;
55114;SDS011;41010;53.252;5.786;2022-10-17T11:03:53;100.07;;;34.00;;
55114;SDS011;41010;53.252;5.786;2022-10-17T11:06:22;58.80;;;25.50;;
55114;SDS011;41010;53.252;5.786;2022-10-17T11:08:53;64.28;;;27.33;;
55114;SDS011;41010;53.252;5.786;2022-10-17T11:11:26;59.78;;;25.65;;
55114;SDS011;41010;53.252;5.786;2022-10-17T11:13:57;53.28;;;23.83;;
55114;SDS011;41010;53.252;5.786;2022-10-17T11:16:28;68.03;;;28.58;;
55114;SDS011;41010;53.252;5.786;2022-10-17T11:19:00;57.85;;;25.58;;
55114;SDS011;41010;53.252;5.786;2022-10-17T11:21:32;120.55;;;35.63;;
55114;SDS011;41010;53.252;5.786;2022-10-17T11:24:02;98.43;;;34.67;;
55114;SDS011;41010;53.252;5.786;2022-10-17T11:26:33;59.90;;;28.00;;
55114;SDS011;41010;53.252;5.786;2022-10-17T11:29:02;62.47;;;29.13;;
55114;SDS011;41010;53.252;5.786;2022-10-17T11:31:32;49.75;;;24.73;;
55114;SDS011;41010;53.252;5.786;2022-10-17T11:34:02;70.40;;;29.02;;
55114;SDS011;41010;53.252;5.786;2022-10-17T11:36:31;44.28;;;23.52;;
55114;SDS011;41010;53.252;5.786;2022-10-17T11:39:00;51.92;;;25.00;;
55114;SDS011;41010;53.252;5.786;2022-10-17T11:41:30;43.78;;;20.88;;
55114;SDS011;41010;53.252;5.786;2022-10-17T11:44:00;40.33;;;19.48;;
55114;SDS011;41010;53.252;5.786;2022-10-17T11:46:30;42.38;;;20.30;;
55114;SDS011;41010;53.252;5.786;2022-10-17T11:49:04;41.83;;;20.50;;
55114;SDS011;41010;53.252;5.786;2022-10-17T11:51:36;31.02;;;16.25;;
55114;SDS011;41010;53.252;5.786;2022-10-17T11:54:07;56.65;;;20.88;;
55114;SDS011;41010;53.252;5.786;2022-10-17T11:56:39;34.60;;;16.17;;
55114;SDS011;41010;53.252;5.786;2022-10-17T11:59:16;38.72;;;17.08;;
55114;SDS011;41010;53.252;5.786;2022-10-17T12:01:47;37.30;;;17.23;;
55114;SDS011;41010;53.252;5.786;2022-10-17T12:04:21;36.03;;;17.17;;
55114;SDS011;41010;53.252;5.786;2022-10-17T12:06:54;38.00;;;16.90;;
55114;SDS011;41010;53.252;5.786;2022-10-17T12:09:25;37.40;;;17.27;;
55114;SDS011;41010;53.252;5.786;2022-10-17T12:11:54;43.03;;;18.20;;
55114;SDS011;41010;53.252;5.786;2022-10-17T12:17:28;33.80;;;15.95;;
55114;SDS011;41010;53.252;5.786;2022-10-17T12:22:54;33.13;;;16.15;;
55114;SDS011;41010;53.252;5.786;2022-10-17T12:25:23;52.40;;;20.52;;
55114;SDS011;41010;53.252;5.786;2022-10-17T12:28:08;28.73;;;12.48;;
55114;SDS011;41010;53.252;5.786;2022-10-17T12:30:40;22.98;;;11.35;;
55114;SDS011;41010;53.252;5.786;2022-10-17T12:33:18;15.02;;;7.45;;
55114;SDS011;41010;53.252;5.786;2022-10-17T12:35:47;23.63;;;11.35;;
55114;SDS011;41010;53.252;5.786;2022-10-17T12:38:24;26.25;;;12.95;;
55114;SDS011;41010;53.252;5.786;2022-10-17T12:40:55;26.33;;;11.60;;
55114;SDS011;41010;53.252;5.786;2022-10-17T12:43:45;21.58;;;11.73;;
55114;SDS011;41010;53.252;5.786;2022-10-17T12:54:14;33.30;;;14.93;;
55114;SDS011;41010;53.252;5.786;2022-10-17T12:56:43;21.92;;;10.77;;
55114;SDS011;41010;53.252;5.786;2022-10-17T12:59:12;20.88;;;9.68;;
55114;SDS011;41010;53.252;5.786;2022-10-17T13:01:42;19.83;;;8.68;;
55114;SDS011;41010;53.252;5.786;2022-10-17T13:04:10;21.58;;;8.32;;
55114;SDS011;41010;53.252;5.786;2022-10-17T13:06:38;17.50;;;7.18;;
55114;SDS011;41010;53.252;5.786;2022-10-17T13:09:16;20.25;;;8.70;;
55114;SDS011;41010;53.252;5.786;2022-10-17T13:11:44;19.77;;;7.90;;
55114;SDS011;41010;53.252;5.786;2022-10-17T13:14:12;16.60;;;6.72;;
55114;SDS011;41010;53.252;5.786;2022-10-17T13:16:42;19.27;;;8.38;;
55114;SDS011;41010;53.252;5.786;2022-10-17T13:19:17;17.40;;;7.05;;
55114;SDS011;41010;53.252;5.786;2022-10-17T13:21:51;14.82;;;6.72;;
55114;SDS011;41010;53.252;5.786;2022-10-17T13:24:22;13.32;;;6.18;;
55114;SDS011;41010;53.252;5.786;2022-10-17T13:26:54;18.90;;;6.60;;
55114;SDS011;41010;53.252;5.786;2022-10-17T13:29:22;19.48;;;6.20;;
55114;SDS011;41010;53.252;5.786;2022-10-17T13:31:51;23.42;;;7.35;;
55114;SDS011;41010;53.252;5.786;2022-10-17T13:34:19;19.50;;;6.90;;
55114;SDS011;41010;53.252;5.786;2022-10-17T13:36:47;17.85;;;6.25;;
55114;SDS011;41010;53.252;5.786;2022-10-17T13:39:16;20.55;;;7.35;;
55114;SDS011;41010;53.252;5.786;2022-10-17T13:41:46;16.35;;;6.75;;
55114;SDS011;41010;53.252;5.786;2022-10-17T13:44:14;13.93;;;6.45;;
55114;SDS011;41010;53.252;5.786;2022-10-17T13:46:42;19.45;;;8.43;;
55114;SDS011;41010;53.252;5.786;2022-10-17T13:49:11;15.73;;;6.45;;
55114;SDS011;41010;53.252;5.786;2022-10-17T13:51:41;13.48;;;6.63;;
55114;SDS011;41010;53.252;5.786;2022-10-17T13:54:16;20.27;;;6.63;;
55114;SDS011;41010;53.252;5.786;2022-10-17T13:56:43;21.73;;;6.20;;
55114;SDS011;41010;53.252;5.786;2022-10-17T13:59:16;13.95;;;5.45;;
55114;SDS011;41010;53.252;5.786;2022-10-17T14:01:47;14.38;;;5.25;;
55114;SDS011;41010;53.252;5.786;2022-10-17T14:04:16;12.45;;;4.90;;
55114;SDS011;41010;53.252;5.786;2022-10-17T14:06:44;14.75;;;5.25;;
55114;SDS011;41010;53.252;5.786;2022-10-17T14:09:15;12.45;;;4.80;;
55114;SDS011;41010;53.252;5.786;2022-10-17T14:11:43;9.77;;;4.10;;
55114;SDS011;41010;53.252;5.786;2022-10-17T14:14:16;15.65;;;4.57;;
55114;SDS011;41010;53.252;5.786;2022-10-17T14:16:44;15.20;;;4.40;;
55114;SDS011;41010;53.252;5.786;2022-10-17T14:19:16;14.73;;;4.82;;
55114;SDS011;41010;53.252;5.786;2022-10-17T14:21:47;15.65;;;5.82;;
55114;SDS011;41010;53.252;5.786;2022-10-17T14:24:21;10.20;;;4.20;;
55114;SDS011;41010;53.252;5.786;2022-10-17T14:26:52;13.60;;;4.75;;
55114;SDS011;41010;53.252;5.786;2022-10-17T14:29:22;14.45;;;4.30;;
55114;SDS011;41010;53.252;5.786;2022-10-17T14:31:55;11.05;;;4.90;;
55114;SDS011;41010;53.252;5.786;2022-10-17T14:34:25;9.65;;;4.10;;
55114;SDS011;41010;53.252;5.786;2022-10-17T14:36:53;18.90;;;4.43;;
55114;SDS011;41010;53.252;5.786;2022-10-17T14:39:22;8.95;;;4.00;;
55114;SDS011;41010;53.252;5.786;2022-10-17T14:41:50;14.55;;;4.63;;
55114;SDS011;41010;53.252;5.786;2022-10-17T14:44:19;14.65;;;4.95;;
55114;SDS011;41010;53.252;5.786;2022-10-17T14:46:49;10.75;;;4.03;;
55114;SDS011;41010;53.252;5.786;2022-10-17T14:49:19;13.95;;;4.65;;
55114;SDS011;41010;53.252;5.786;2022-10-17T14:54:33;14.05;;;3.95;;
55114;SDS011;41010;53.252;5.786;2022-10-17T14:57:07;12.38;;;3.88;;
55114;SDS011;41010;53.252;5.786;2022-10-17T14:59:34;13.68;;;4.20;;
55114;SDS011;41010;53.252;5.786;2022-10-17T15:02:03;12.27;;;5.07;;
55114;SDS011;41010;53.252;5.786;2022-10-17T15:04:30;10.98;;;4.15;;
55114;SDS011;41010;53.252;5.786;2022-10-17T15:06:57;11.25;;;4.05;;